Time;durP1;ratioP1;P1;durP2;ratioP2;P2;SDS_P1;SDS_P2;PMS_P1;PMS_P2;Temp;Humidity;BMP_temperature;BMP_pressure;BME280_temperature;BME280_humidity;BME280_pressure;Samples;Min_cycle;Max_cycle;Signal;HPM_P1;HPM_P2
2023/06/18 00:00:41;;;;;;;9.32;5.88;;;;;;;18.29;61.21;97116.97;5031253;28;20490;-71
2023/06/18 00:03:07;;;;;;;8.02;5.38;;;;;;;18.26;61.28;97120.28;5031123;28;20436;-71
2023/06/18 00:05:33;;;;;;;7.70;5.32;;;;;;;18.25;61.05;97120.56;5030867;28;20403;-71
2023/06/18 00:08:00;;;;;;;7.97;5.60;;;;;;;18.19;61.09;97120.69;5031249;28;20753;-71
2023/06/18 00:10:26;;;;;;;10.18;6.07;;;;;;;18.14;61.42;97117.34;5031127;28;20403;-71
2023/06/18 00:12:52;;;;;;;6.85;5.20;;;;;;;18.09;61.93;97112.91;5029536;28;20415;-71
2023/06/18 00:15:20;;;;;;;10.18;5.55;;;;;;;18.06;61.61;97113.53;5030995;28;20726;-71
2023/06/18 00:17:46;;;;;;;9.13;5.25;;;;;;;18.05;61.67;97114.63;5030459;28;20403;-71
2023/06/18 00:20:13;;;;;;;8.93;5.35;;;;;;;18.02;61.97;97117.13;5030860;28;20413;-70
2023/06/18 00:22:39;;;;;;;9.15;5.38;;;;;;;17.98;61.64;97110.78;5030874;28;20411;-71
2023/06/18 00:25:08;;;;;;;8.70;5.22;;;;;;;17.95;61.82;97104.16;5030417;28;20427;-71
2023/06/18 00:27:34;;;;;;;6.75;5.18;;;;;;;17.92;62.91;97120.03;5030804;28;20395;-71
2023/06/18 00:30:00;;;;;;;6.82;4.90;;;;;;;17.88;62.87;97113.72;5030729;28;20403;-71
2023/06/18 00:32:28;;;;;;;10.10;5.50;;;;;;;17.89;62.81;97115.31;5030825;28;20492;-71
2023/06/18 00:34:54;;;;;;;7.60;5.13;;;;;;;17.85;62.52;97112.44;5030419;28;20402;-71
2023/06/18 00:37:21;;;;;;;9.23;5.03;;;;;;;17.84;62.63;97112.72;5030605;28;20407;-71
2023/06/18 00:39:48;;;;;;;7.28;5.07;;;;;;;17.79;62.64;97103.75;5030794;28;20737;-70
2023/06/18 00:42:15;;;;;;;6.25;4.53;;;;;;;17.79;62.84;97110.97;5030572;28;20415;-71
2023/06/18 00:44:41;;;;;;;8.93;5.53;;;;;;;17.81;62.58;97105.31;5030056;28;20818;-71
2023/06/18 00:47:11;;;;;;;9.15;5.57;;;;;;;17.81;61.92;97098.09;4968719;28;1760609;-71
2023/06/18 00:49:40;;;;;;;8.95;5.82;;;;;;;17.81;62.04;97098.09;5031158;28;20405;-71
2023/06/18 00:52:09;;;;;;;9.52;5.65;;;;;;;17.81;61.76;97097.28;5038761;28;20419;-71
2023/06/18 00:54:36;;;;;;;7.53;5.43;;;;;;;17.73;61.88;97098.81;5042247;28;20451;-70
2023/06/18 00:57:04;;;;;;;8.93;5.72;;;;;;;17.68;61.38;97099.69;5049066;28;20409;-71
2023/06/18 00:59:32;;;;;;;6.23;4.60;;;;;;;17.66;62.04;97095.75;5043154;28;20405;-71
2023/06/18 01:02:01;;;;;;;7.97;5.30;;;;;;;17.70;61.89;97102.88;5041682;28;20755;-70
2023/06/18 01:04:32;;;;;;;6.82;4.63;;;;;;;17.66;62.37;97101.13;5038934;28;20411;-71
2023/06/18 01:07:01;;;;;;;7.63;5.40;;;;;;;17.62;62.94;97097.44;5030983;28;20403;-71
2023/06/18 01:09:29;;;;;;;6.50;4.88;;;;;;;17.59;63.19;97106.06;5030843;28;20900;-71
2023/06/18 01:11:55;;;;;;;9.23;5.93;;;;;;;17.56;62.78;97096.75;5031186;28;20415;-71
2023/06/18 01:14:27;;;;;;;6.78;5.18;;;;;;;17.50;63.46;97099.84;5030923;28;20403;-71
2023/06/18 01:16:55;;;;;;;7.28;4.95;;;;;;;17.48;63.75;97089.44;5030980;28;20466;-71
2023/06/18 01:19:41;;;;;;;7.25;5.40;;;;;;;17.49;63.16;97096.38;5030875;28;20909;-71
2023/06/18 01:22:17;;;;;;;9.37;5.77;;;;;;;17.45;63.10;97091.91;5031068;28;20494;-71
2023/06/18 01:24:50;;;;;;;8.57;5.88;;;;;;;17.38;63.66;97086.97;5030510;28;20427;-71
2023/06/18 01:27:20;;;;;;;6.60;5.03;;;;;;;17.35;63.85;97095.63;5031071;28;20749;-70
2023/06/18 01:29:47;;;;;;;7.18;5.20;;;;;;;17.30;63.94;97093.03;5032986;28;20407;-71
2023/06/18 01:32:13;;;;;;;9.07;5.85;;;;;;;17.28;63.51;97088.03;5033472;28;20411;-71
2023/06/18 01:34:40;;;;;;;9.60;5.70;;;;;;;17.24;63.16;97086.22;5034405;28;20564;-71
2023/06/18 01:37:16;;;;;;;7.00;5.25;;;;;;;17.22;63.83;97089.19;5034852;28;20402;-71
2023/06/18 01:39:52;;;;;;;6.85;4.68;;;;;;;17.21;64.39;97089.53;5034771;28;20403;-71
2023/06/18 01:42:22;;;;;;;6.93;5.00;;;;;;;17.21;64.84;97090.31;5034572;28;20410;-71
2023/06/18 01:44:55;;;;;;;6.87;4.90;;;;;;;17.23;64.55;97090.00;5034289;28;20522;-71
2023/06/18 01:47:26;;;;;;;7.45;4.95;;;;;;;17.19;64.72;97095.16;5034171;28;20750;-71
2023/06/18 01:49:54;;;;;;;6.75;5.15;;;;;;;17.15;65.05;97091.50;5034501;28;20815;-71
2023/06/18 01:52:24;;;;;;;6.38;4.95;;;;;;;17.11;65.10;97095.88;5034398;28;20403;-70
2023/06/18 01:54:51;;;;;;;8.00;5.07;;;;;;;17.09;64.85;97090.03;5034087;28;20401;-71
2023/06/18 01:57:18;;;;;;;8.05;5.32;;;;;;;17.07;64.56;97088.72;5034585;28;20744;-71
2023/06/18 01:59:44;;;;;;;7.80;5.38;;;;;;;17.06;64.56;97095.97;5033314;28;20816;-71
2023/06/18 02:02:12;;;;;;;7.15;5.18;;;;;;;17.05;65.25;97088.25;5033004;28;20398;-71
2023/06/18 02:04:43;;;;;;;7.32;5.15;;;;;;;17.00;65.54;97095.28;5033843;28;20414;-71
2023/06/18 02:07:10;;;;;;;7.90;5.30;;;;;;;16.97;65.85;97090.53;5032754;28;20900;-71
2023/06/18 02:09:39;;;;;;;7.43;4.88;;;;;;;16.96;66.38;97096.97;5034322;28;20953;-71
2023/06/18 02:12:07;;;;;;;8.80;5.80;;;;;;;16.94;65.18;97096.47;5034152;28;20447;-70
2023/06/18 02:14:33;;;;;;;9.43;5.82;;;;;;;16.95;65.37;97102.63;5048736;28;20890;-70
2023/06/18 02:16:59;;;;;;;7.93;5.43;;;;;;;16.94;65.46;97093.00;5054061;28;20441;-71
2023/06/18 02:19:26;;;;;;;8.82;5.55;;;;;;;16.93;65.63;97097.56;5053909;28;20409;-71
2023/06/18 02:21:53;;;;;;;7.40;5.55;;;;;;;16.90;66.95;97090.16;5053879;28;20421;-71
2023/06/18 02:24:19;;;;;;;7.40;5.53;;;;;;;16.87;66.57;97089.94;5053130;28;20409;-71
2023/06/18 02:26:47;;;;;;;9.63;6.15;;;;;;;16.90;65.84;97094.72;5053586;28;20409;-71
2023/06/18 02:29:13;;;;;;;7.72;5.50;;;;;;;16.81;66.41;97097.28;5052063;28;20882;-71
2023/06/18 02:31:39;;;;;;;8.93;5.93;;;;;;;16.74;66.73;97090.75;5053764;28;20479;-71
2023/06/18 02:34:06;;;;;;;8.93;6.50;;;;;;;16.70;67.10;97093.22;5053631;28;20395;-71
2023/06/18 02:36:34;;;;;;;8.98;6.25;;;;;;;16.75;66.16;97097.69;5053272;28;20405;-71
2023/06/18 02:39:00;;;;;;;9.73;6.50;;;;;;;16.71;66.32;97097.47;5053640;28;20401;-71
2023/06/18 02:41:27;;;;;;;9.55;6.22;;;;;;;16.63;67.07;97098.97;5053199;28;20897;-71
2023/06/18 02:43:55;;;;;;;8.65;5.55;;;;;;;16.57;67.50;97091.31;5053347;28;20423;-71
2023/06/18 02:46:21;;;;;;;8.75;5.90;;;;;;;16.58;67.66;97090.22;5053225;28;20810;-71
2023/06/18 02:48:47;;;;;;;8.02;5.75;;;;;;;16.56;67.57;97089.72;5053209;28;20405;-71
2023/06/18 02:51:13;;;;;;;9.57;5.45;;;;;;;16.57;67.83;97085.97;5053324;28;20475;-71
2023/06/18 02:53:39;;;;;;;10.63;6.20;;;;;;;16.55;67.70;97093.47;5053425;28;20398;-71
2023/06/18 02:56:06;;;;;;;8.88;6.03;;;;;;;16.51;67.77;97089.81;5052901;28;20492;-71
2023/06/18 02:58:35;;;;;;;8.73;6.10;;;;;;;16.46;68.17;97087.25;5045022;28;20872;-71
2023/06/18 03:01:03;;;;;;;9.93;6.60;;;;;;;16.42;68.46;97086.25;5041853;28;20405;-71
2023/06/18 03:03:29;;;;;;;9.20;5.68;;;;;;;16.36;68.80;97082.09;5052985;28;20401;-71
2023/06/18 03:05:57;;;;;;;8.23;5.57;;;;;;;16.34;68.95;97085.06;5052786;28;20409;-71
2023/06/18 03:08:24;;;;;;;9.23;5.95;;;;;;;16.34;69.21;97081.59;5049288;28;20398;-71
2023/06/18 03:10:50;;;;;;;8.10;5.75;;;;;;;16.32;69.58;97089.88;5052747;28;20405;-71
2023/06/18 03:13:17;;;;;;;9.30;6.18;;;;;;;16.32;69.58;97094.44;5048994;28;20893;-71
2023/06/18 03:15:43;;;;;;;8.47;6.00;;;;;;;16.33;70.00;97096.03;5044016;28;20887;-71
2023/06/18 03:18:11;;;;;;;7.95;5.78;;;;;;;16.32;70.41;97097.91;5050742;28;20454;-70
2023/06/18 03:20:37;;;;;;;10.05;6.30;;;;;;;16.32;70.15;97102.44;5040440;28;20405;-71
2023/06/18 03:23:03;;;;;;;9.30;5.60;;;;;;;16.30;70.41;97101.97;5044237;28;20502;-71
2023/06/18 03:25:30;;;;;;;9.80;6.53;;;;;;;16.27;70.35;97101.47;5050536;28;20417;-71
2023/06/18 03:27:56;;;;;;;8.07;5.55;;;;;;;16.23;70.81;97097.81;5052788;28;20401;-71
2023/06/18 03:30:22;;;;;;;8.00;5.55;;;;;;;16.20;70.99;97109.06;5044674;28;20509;-71
2023/06/18 03:32:49;;;;;;;7.95;5.80;;;;;;;16.22;71.21;97101.56;5032599;28;20473;-71
2023/06/18 03:35:16;;;;;;;8.82;6.18;;;;;;;16.22;71.36;97106.13;5032267;28;20410;-71
2023/06/18 03:37:43;;;;;;;7.43;5.57;;;;;;;16.24;71.59;97111.94;5032535;28;20404;-71
2023/06/18 03:40:10;;;;;;;9.07;6.30;;;;;;;16.24;71.46;97106.59;5032558;28;20435;-71
2023/06/18 03:42:36;;;;;;;8.00;6.00;;;;;;;16.22;72.03;97101.56;5032398;28;20395;-71
2023/06/18 03:45:02;;;;;;;7.80;5.72;;;;;;;16.24;72.25;97101.25;5030704;28;20422;-71
2023/06/18 03:47:29;;;;;;;8.20;5.95;;;;;;;16.27;72.25;97098.00;5044280;28;20415;-71
2023/06/18 03:49:55;;;;;;;8.65;5.95;;;;;;;16.26;72.51;97107.88;5046991;28;20406;-71
2023/06/18 03:52:23;;;;;;;8.82;6.13;;;;;;;16.29;72.93;97103.84;5051236;28;20467;-71
2023/06/18 03:54:49;;;;;;;7.43;5.28;;;;;;;16.30;73.27;97100.09;5051759;28;20441;-71
2023/06/18 03:57:16;;;;;;;9.32;5.72;;;;;;;16.33;73.68;97106.72;5051984;28;20484;-71
2023/06/18 03:59:42;;;;;;;7.28;5.35;;;;;;;16.35;74.15;97101.88;5043784;28;20406;-71
2023/06/18 04:02:08;;;;;;;8.45;5.90;;;;;;;16.37;74.49;97105.84;5051947;28;20468;-71
2023/06/18 04:04:35;;;;;;;8.52;5.80;;;;;;;16.41;74.83;97104.16;5051718;28;21096;-71
2023/06/18 04:07:03;;;;;;;10.48;6.72;;;;;;;16.46;74.12;97103.28;5051833;28;20397;-71
2023/06/18 04:09:31;;;;;;;9.50;6.32;;;;;;;16.46;74.77;97109.41;5051975;28;20409;-71
2023/06/18 04:11:58;;;;;;;8.32;5.85;;;;;;;16.49;74.80;97102.69;5051441;28;20409;-71
2023/06/18 04:14:25;;;;;;;9.13;6.38;;;;;;;16.51;75.22;97103.97;5050274;28;20408;-71
2023/06/18 04:16:51;;;;;;;9.05;6.03;;;;;;;16.54;75.42;97111.38;5051575;28;20736;-71
2023/06/18 04:19:17;;;;;;;8.50;6.63;;;;;;;16.57;75.36;97108.13;5051627;28;20405;-71
2023/06/18 04:21:44;;;;;;;9.90;5.90;;;;;;;16.61;75.76;97109.13;5051630;28;20444;-71
2023/06/18 04:24:10;;;;;;;8.98;6.07;;;;;;;16.64;75.88;97113.13;5051497;28;20807;-71
2023/06/18 04:26:37;;;;;;;10.75;6.28;;;;;;;16.68;76.00;97111.44;5043067;28;20405;-71
2023/06/18 04:29:04;;;;;;;9.07;6.18;;;;;;;16.73;75.82;97108.66;5050876;28;20551;-72
2023/06/18 04:31:30;;;;;;;10.70;6.47;;;;;;;16.80;75.25;97110.94;5051483;28;20485;-72
2023/06/18 04:33:56;;;;;;;8.77;6.30;;;;;;;16.87;75.00;97111.34;5051500;28;20744;-73
2023/06/18 04:36:22;;;;;;;7.75;5.80;;;;;;;16.95;74.35;97113.31;5051042;28;20413;-71
2023/06/18 04:38:48;;;;;;;9.13;6.38;;;;;;;17.02;74.61;97108.34;5051329;28;20890;-72
2023/06/18 04:41:15;;;;;;;9.18;6.35;;;;;;;17.10;74.23;97109.53;5051403;28;20437;-71
2023/06/18 04:43:43;;;;;;;8.27;5.60;;;;;;;17.15;74.67;97107.53;5050129;28;20428;-70
2023/06/18 04:46:09;;;;;;;8.65;5.75;;;;;;;17.21;74.66;97103.69;5050957;28;20433;-70
2023/06/18 04:48:35;;;;;;;7.75;5.60;;;;;;;17.27;75.03;97099.81;5049696;28;20406;-70
2023/06/18 04:51:05;;;;;;;8.32;5.97;;;;;;;17.33;74.91;97097.81;5051090;28;20405;-70
2023/06/18 04:53:31;;;;;;;7.97;5.90;;;;;;;17.38;74.99;97095.81;5049737;28;20876;-70
2023/06/18 04:55:57;;;;;;;7.75;5.50;;;;;;;17.45;75.33;97097.25;5050690;28;20405;-70
2023/06/18 04:58:24;;;;;;;7.65;5.90;;;;;;;17.50;75.45;97103.31;5048989;28;20417;-70
2023/06/18 05:00:52;;;;;;;8.02;5.45;;;;;;;17.55;75.45;97100.53;5048868;28;20474;-70
2023/06/18 05:03:18;;;;;;;6.40;5.18;;;;;;;17.61;75.44;97095.84;5042455;28;20883;-70
2023/06/18 05:05:44;;;;;;;7.50;5.40;;;;;;;17.65;76.06;97094.97;5049914;28;20519;-71
2023/06/18 05:08:11;;;;;;;8.55;6.07;;;;;;;17.69;76.42;97095.13;5049724;28;20408;-70
2023/06/18 05:10:37;;;;;;;7.05;5.10;;;;;;;17.70;76.94;97100.19;5042546;28;20442;-70
2023/06/18 05:13:03;;;;;;;8.03;5.50;;;;;;;17.72;77.21;97097.22;5050851;28;20409;-70
2023/06/18 05:15:30;;;;;;;7.07;5.25;;;;;;;17.74;77.57;97100.41;5042483;28;20397;-70
2023/06/18 05:17:57;;;;;;;7.40;5.07;;;;;;;17.76;78.17;97095.50;5050713;28;20416;-71
2023/06/18 05:20:23;;;;;;;7.80;5.38;;;;;;;17.78;78.42;97091.44;5051070;28;20720;-70
2023/06/18 05:22:50;;;;;;;9.17;5.20;;;;;;;17.83;79.06;97093.19;5050742;28;20486;-70
2023/06/18 05:25:16;;;;;;;7.97;5.05;;;;;;;17.89;79.86;97089.31;5050357;28;20840;-70
2023/06/18 05:27:43;;;;;;;5.93;4.65;;;;;;;17.95;80.43;97098.00;5047008;28;20403;-70
2023/06/18 05:30:12;;;;;;;6.78;4.93;;;;;;;18.02;81.20;97101.84;5046126;28;20890;-70
2023/06/18 05:32:39;;;;;;;7.03;4.85;;;;;;;18.09;81.74;97104.09;5050642;28;20436;-69
2023/06/18 05:35:08;;;;;;;6.32;4.93;;;;;;;18.14;82.24;97107.44;5046499;28;20413;-69
2023/06/18 05:37:34;;;;;;;6.38;4.90;;;;;;;18.20;82.57;97108.09;5043513;28;20931;-69
2023/06/18 05:40:01;;;;;;;5.90;4.80;;;;;;;18.26;82.79;97101.53;5044089;28;20398;-69
2023/06/18 05:42:27;;;;;;;6.68;4.63;;;;;;;18.34;83.21;97108.03;5045212;28;20398;-69
2023/06/18 05:44:54;;;;;;;7.90;5.53;;;;;;;18.40;83.25;97106.78;5045377;28;20755;-69
2023/06/18 05:47:20;;;;;;;7.20;5.35;;;;;;;18.45;83.31;97109.31;5042606;28;20401;-68
2023/06/18 05:49:47;;;;;;;6.57;5.13;;;;;;;18.49;83.88;97113.75;5043367;28;20407;-68
2023/06/18 05:52:14;;;;;;;5.88;4.93;;;;;;;18.57;83.74;97119.53;5043654;28;20933;-68
2023/06/18 05:54:41;;;;;;;5.65;4.90;;;;;;;18.62;84.03;97116.69;5044527;28;20447;-69
2023/06/18 05:57:07;;;;;;;7.32;5.07;;;;;;;18.67;83.78;97117.34;5040448;28;20432;-70
2023/06/18 05:59:33;;;;;;;5.95;4.75;;;;;;;18.72;83.72;97119.13;5042806;28;20408;-70
2023/06/18 06:01:59;;;;;;;6.82;4.78;;;;;;;18.79;83.53;97119.44;5040300;28;20419;-70
2023/06/18 06:04:26;;;;;;;7.72;5.28;;;;;;;18.83;83.50;97112.34;5038012;28;20423;-69
2023/06/18 06:06:52;;;;;;;7.63;5.50;;;;;;;18.89;82.57;97114.59;5045735;28;20592;-70
2023/06/18 06:09:20;;;;;;;7.70;5.30;;;;;;;18.95;81.74;97115.22;5045432;28;20402;-70
2023/06/18 06:11:47;;;;;;;7.55;5.75;;;;;;;19.03;80.08;97114.47;5041659;28;20429;-70
2023/06/18 06:14:15;;;;;;;8.65;5.78;;;;;;;19.08;79.69;97113.53;5046812;28;20397;-71
2023/06/18 06:16:41;;;;;;;7.70;5.68;;;;;;;19.13;79.21;97121.44;5051796;28;20421;-70
2023/06/18 06:19:08;;;;;;;6.38;4.93;;;;;;;19.21;78.94;97118.78;5052372;28;20413;-70
2023/06/18 06:21:34;;;;;;;7.07;5.55;;;;;;;19.28;78.92;97118.31;5053586;28;20420;-70
2023/06/18 06:24:01;;;;;;;6.72;4.97;;;;;;;19.35;78.75;97118.63;5053393;28;20810;-70
2023/06/18 06:26:29;;;;;;;7.50;5.20;;;;;;;19.42;78.27;97112.81;5052946;28;20440;-70
2023/06/18 06:28:55;;;;;;;6.72;5.28;;;;;;;19.50;77.65;97120.09;5053466;28;20409;-70
2023/06/18 06:31:21;;;;;;;7.00;5.05;;;;;;;19.56;76.20;97111.56;5052455;28;20436;-70
2023/06/18 06:33:47;;;;;;;7.35;5.57;;;;;;;19.65;75.65;97106.22;5053405;28;20412;-70
2023/06/18 06:36:13;;;;;;;7.53;5.33;;;;;;;19.73;74.64;97104.63;5048047;28;20399;-70
2023/06/18 06:38:40;;;;;;;7.88;5.40;;;;;;;19.81;74.43;97117.28;5044128;28;20395;-70
2023/06/18 06:41:06;;;;;;;7.10;5.38;;;;;;;19.88;72.60;97106.84;5046211;28;20804;-70
2023/06/18 06:43:34;;;;;;;8.40;6.38;;;;;;;19.95;67.68;97117.91;5049410;28;20407;-69
2023/06/18 06:46:01;;;;;;;7.82;5.85;;;;;;;20.06;65.88;97111.09;5052816;28;20416;-70
2023/06/18 06:48:27;;;;;;;7.83;5.40;;;;;;;20.18;65.94;97105.06;5052920;28;20413;-70
2023/06/18 06:50:53;;;;;;;8.35;5.65;;;;;;;20.27;64.11;97111.22;5052030;28;20437;-70
2023/06/18 06:53:20;;;;;;;10.85;6.75;;;;;;;20.30;59.06;97114.03;5044476;28;20467;-69
2023/06/18 06:55:46;;;;;;;9.13;5.93;;;;;;;20.42;61.16;97116.91;5042736;28;20407;-71
2023/06/18 06:58:12;;;;;;;9.38;5.90;;;;;;;20.52;61.39;97114.97;5046532;28;20474;-69
2023/06/18 07:00:40;;;;;;;10.90;5.85;;;;;;;20.55;59.55;97117.78;5046522;28;20413;-69
2023/06/18 07:03:06;;;;;;;8.40;5.60;;;;;;;20.62;58.92;97112.72;5049466;28;20409;-69
2023/06/18 07:05:32;;;;;;;12.07;6.72;;;;;;;20.58;54.80;97119.84;5046562;28;20410;-70
2023/06/18 07:07:59;;;;;;;7.70;5.90;;;;;;;20.77;55.60;97114.06;5047533;28;20406;-69
2023/06/18 07:10:25;;;;;;;10.65;6.40;;;;;;;20.83;53.75;97118.16;5045243;28;20409;-69
2023/06/18 07:12:51;;;;;;;10.38;6.10;;;;;;;20.84;54.32;97125.13;5051477;28;20413;-69
2023/06/18 07:15:17;;;;;;;9.10;5.78;;;;;;;20.88;55.43;97127.97;5042851;28;20409;-69
2023/06/18 07:17:45;;;;;;;12.50;7.07;;;;;;;20.85;53.75;97126.69;5049745;28;20428;-70
2023/06/18 07:20:11;;;;;;;8.48;5.72;;;;;;;20.96;55.25;97127.13;5045250;28;20409;-70
2023/06/18 07:22:38;;;;;;;7.22;5.25;;;;;;;21.00;56.42;97133.44;5042418;28;20411;-70
2023/06/18 07:25:05;;;;;;;6.13;4.68;;;;;;;21.06;57.08;97124.06;5039529;28;20429;-70
2023/06/18 07:27:34;;;;;;;6.63;4.88;;;;;;;21.11;58.16;97129.28;5040381;28;20904;-69
2023/06/18 07:30:00;;;;;;;7.40;5.32;;;;;;;21.17;56.28;97128.78;5044076;28;20405;-69
2023/06/18 07:32:26;;;;;;;10.93;6.15;;;;;;;21.20;54.02;97127.38;5037487;28;20409;-69
2023/06/18 07:34:54;;;;;;;11.30;6.72;;;;;;;21.26;53.97;97125.25;5042509;28;20918;-69
2023/06/18 07:37:21;;;;;;;9.87;6.30;;;;;;;21.50;51.31;97118.09;5052313;28;20401;-70
2023/06/18 07:39:48;;;;;;;7.30;5.70;;;;;;;21.49;52.05;97129.22;5052461;28;20429;-70
2023/06/18 07:42:14;;;;;;;9.43;6.32;;;;;;;21.55;49.47;97125.22;5052405;28;20451;-70
2023/06/18 07:44:40;;;;;;;10.20;6.28;;;;;;;21.62;50.03;97125.50;5052018;28;20417;-70
2023/06/18 07:47:07;;;;;;;9.03;6.00;;;;;;;21.81;48.46;97123.09;5052368;28;20405;-69
2023/06/18 07:49:34;;;;;;;6.88;5.20;;;;;;;21.82;50.13;97122.00;5052250;28;20412;-70
2023/06/18 07:52:02;;;;;;;6.45;4.95;;;;;;;21.85;51.07;97125.94;5052294;28;20487;-70
2023/06/18 07:54:28;;;;;;;6.88;4.95;;;;;;;21.85;51.87;97125.94;5051784;28;20835;-70
2023/06/18 07:56:54;;;;;;;12.40;6.70;;;;;;;21.78;49.24;97123.78;5039325;28;20418;-70
2023/06/18 07:59:21;;;;;;;7.43;5.35;;;;;;;21.89;50.68;97119.56;5041952;28;20413;-70
2023/06/18 08:01:47;;;;;;;10.48;6.43;;;;;;;21.97;49.82;97121.41;5039617;28;20401;-70
2023/06/18 08:04:14;;;;;;;7.15;5.18;;;;;;;22.08;51.11;97121.00;5046205;28;20418;-70
2023/06/18 08:06:40;;;;;;;10.85;6.15;;;;;;;22.11;50.60;97120.34;5042320;28;20510;-69
2023/06/18 08:09:07;;;;;;;10.05;6.40;;;;;;;22.17;50.72;97119.03;5050382;28;20409;-69
2023/06/18 08:11:34;;;;;;;8.05;5.30;;;;;;;22.32;51.44;97115.69;5049979;28;20405;-69
2023/06/18 08:14:02;;;;;;;6.90;5.30;;;;;;;22.43;51.61;97113.34;5047914;28;20413;-70
2023/06/18 08:16:28;;;;;;;7.03;5.35;;;;;;;22.58;50.39;97110.78;5042824;28;20403;-70
2023/06/18 08:18:54;;;;;;;14.18;6.90;;;;;;;22.60;48.21;97115.88;5049089;28;20499;-69
2023/06/18 08:21:21;;;;;;;7.30;5.33;;;;;;;22.72;49.45;97116.66;5049239;28;20500;-70
2023/06/18 08:23:48;;;;;;;6.00;4.97;;;;;;;22.84;50.05;97112.44;5042050;28;20414;-70
2023/06/18 08:26:16;;;;;;;5.90;4.10;;;;;;;22.97;50.71;97112.09;5046118;28;20439;-71
2023/06/18 08:28:42;;;;;;;5.18;4.03;;;;;;;23.11;50.95;97114.44;5046284;28;20420;-70
2023/06/18 08:31:08;;;;;;;5.70;4.60;;;;;;;23.26;50.28;97113.75;5043541;28;20448;-69
2023/06/18 08:33:34;;;;;;;9.68;6.43;;;;;;;23.29;48.81;97098.81;5046650;28;20930;-69
2023/06/18 08:36:01;;;;;;;9.98;5.85;;;;;;;23.47;47.21;97108.22;5045477;28;20405;-69
2023/06/18 08:38:27;;;;;;;11.13;6.20;;;;;;;23.44;44.16;97112.41;5049711;28;20766;-70
2023/06/18 08:41:01;;;;;;;12.70;6.53;;;;;;;23.49;44.61;97108.69;5047558;28;20445;-70
2023/06/18 08:43:32;;;;;;;6.57;5.10;;;;;;;23.61;45.57;97105.94;5039779;28;20790;-70
2023/06/18 08:46:03;;;;;;;7.60;4.97;;;;;;;23.73;46.77;97099.75;5047529;28;20466;-70
2023/06/18 08:48:31;;;;;;;9.15;5.60;;;;;;;23.74;44.67;97112.91;5041749;28;20744;-70
2023/06/18 08:51:01;;;;;;;10.02;6.00;;;;;;;24.08;42.45;97103.41;5049015;28;20455;-70
2023/06/18 08:53:38;;;;;;;6.22;4.80;;;;;;;24.15;44.12;97108.22;5049559;28;20405;-70
2023/06/18 08:56:06;;;;;;;8.27;5.30;;;;;;;24.23;44.60;97100.00;5050357;28;20480;-70
2023/06/18 08:58:38;;;;;;;9.82;5.85;;;;;;;24.42;43.61;97101.25;5050686;28;20929;-70
2023/06/18 09:01:06;;;;;;;7.32;4.63;;;;;;;24.48;43.56;97094.44;5050550;28;20459;-70
2023/06/18 09:03:36;;;;;;;8.35;5.07;;;;;;;24.42;41.91;97095.84;5050579;28;20418;-70
2023/06/18 09:06:03;;;;;;;7.10;5.15;;;;;;;24.53;42.63;97091.47;5050157;28;20850;-71
2023/06/18 09:08:30;;;;;;;7.85;4.85;;;;;;;24.56;41.95;97094.28;5050768;28;20397;-70
2023/06/18 09:10:59;;;;;;;7.32;4.80;;;;;;;24.65;42.13;97094.91;5050458;28;20412;-70
2023/06/18 09:13:26;;;;;;;6.15;4.78;;;;;;;24.80;42.05;97092.53;5050464;28;20919;-70
2023/06/18 09:15:54;;;;;;;7.63;5.20;;;;;;;24.91;39.57;97097.09;5050081;28;20566;-70
2023/06/18 09:18:21;;;;;;;8.05;5.20;;;;;;;24.78;39.27;97097.50;5050490;28;20406;-70
2023/06/18 09:20:48;;;;;;;7.63;5.00;;;;;;;24.82;40.30;97106.50;5050445;28;20413;-70
2023/06/18 09:23:15;;;;;;;8.82;5.43;;;;;;;24.75;37.95;97095.50;5050434;28;20460;-70
2023/06/18 09:25:41;;;;;;;9.35;5.28;;;;;;;24.82;38.30;97082.91;5050338;28;20444;-70
2023/06/18 09:28:08;;;;;;;5.63;4.10;;;;;;;24.84;39.06;97083.34;5050364;28;20409;-70
2023/06/18 09:30:35;;;;;;;7.80;5.47;;;;;;;24.83;37.96;97078.28;5050174;28;20484;-70
2023/06/18 09:33:02;;;;;;;6.18;4.75;;;;;;;24.89;39.16;97085.78;5050333;28;20411;-70
2023/06/18 09:35:31;;;;;;;5.80;4.13;;;;;;;25.04;40.36;97085.00;5049886;28;20393;-69
2023/06/18 09:38:08;;;;;;;4.70;3.83;;;;;;;25.28;39.41;97075.88;5050235;28;20409;-69
2023/06/18 09:40:34;;;;;;;8.18;5.25;;;;;;;25.35;37.31;97069.81;5050165;28;20744;-69
2023/06/18 09:43:02;;;;;;;6.05;4.75;;;;;;;25.44;38.81;97083.97;5050111;28;20413;-69
2023/06/18 09:45:28;;;;;;;5.80;4.10;;;;;;;25.53;39.86;97081.84;5049495;28;20423;-70
2023/06/18 09:47:55;;;;;;;10.80;5.65;;;;;;;25.44;37.13;97073.13;5050151;28;20409;-70
2023/06/18 09:50:25;;;;;;;5.18;4.00;;;;;;;25.67;38.89;97074.03;5051377;28;20500;-70
2023/06/18 09:52:52;;;;;;;6.93;4.70;;;;;;;25.76;36.73;97066.47;5054089;28;20406;-70
2023/06/18 09:55:28;;;;;;;8.05;4.88;;;;;;;25.89;37.19;97064.38;5053593;28;20483;-70
2023/06/18 09:57:54;;;;;;;7.15;4.70;;;;;;;25.91;37.52;97070.25;5054025;28;20401;-69
2023/06/18 10:00:22;;;;;;;8.20;5.07;;;;;;;25.86;35.86;97072.47;5054066;28;20889;-70
2023/06/18 10:02:48;;;;;;;7.22;5.10;;;;;;;25.92;36.79;97060.97;5054055;28;20454;-69
2023/06/18 10:05:14;;;;;;;10.63;5.00;;;;;;;26.03;36.88;97063.88;5053651;28;20774;-69
2023/06/18 10:07:43;;;;;;;9.15;5.10;;;;;;;26.33;34.14;97070.28;5053751;28;20406;-70
2023/06/18 10:10:14;;;;;;;13.13;5.78;;;;;;;26.27;34.86;97068.22;5053738;28;20501;-69
2023/06/18 10:12:41;;;;;;;6.70;4.80;;;;;;;26.24;35.30;97063.50;5053655;28;20397;-70
2023/06/18 10:15:11;;;;;;;6.55;4.18;;;;;;;26.26;36.56;97059.28;5053723;28;20394;-69
2023/06/18 10:17:44;;;;;;;7.25;5.05;;;;;;;26.28;35.24;97062.44;5053475;28;20468;-69
2023/06/18 10:20:13;;;;;;;8.25;5.05;;;;;;;26.76;32.21;97055.50;5053647;28;20404;-70
2023/06/18 10:22:45;;;;;;;6.88;5.10;;;;;;;26.48;34.58;97055.00;5053450;28;20883;-70
2023/06/18 10:25:12;;;;;;;11.18;5.85;;;;;;;26.73;33.62;97050.78;5053049;28;20417;-69
2023/06/18 10:27:39;;;;;;;5.27;4.20;;;;;;;26.69;35.12;97054.59;5053438;28;20410;-69
2023/06/18 10:30:08;;;;;;;8.45;4.82;;;;;;;26.66;34.64;97052.59;5053313;28;20399;-69
2023/06/18 10:32:35;;;;;;;6.82;4.65;;;;;;;26.67;35.09;97048.75;5053412;28;20902;-70
2023/06/18 10:35:05;;;;;;;6.40;4.47;;;;;;;26.76;36.18;97058.22;5053065;28;20902;-70
2023/06/18 10:37:34;;;;;;;6.10;3.93;;;;;;;26.98;35.79;97055.84;5053404;28;20895;-70
2023/06/18 10:40:04;;;;;;;8.23;4.50;;;;;;;27.02;34.92;97056.66;5053474;28;20479;-70
2023/06/18 10:42:32;;;;;;;6.50;4.55;;;;;;;27.05;35.61;97059.47;5052965;28;20729;-69
2023/06/18 10:45:07;;;;;;;5.15;3.85;;;;;;;27.17;35.79;97056.50;5052701;28;20497;-70
2023/06/18 10:47:34;;;;;;;5.60;4.30;;;;;;;27.25;36.38;97058.19;5052864;28;20410;-70
2023/06/18 10:50:15;;;;;;;6.97;4.30;;;;;;;27.37;36.70;97046.28;5052875;28;20400;-70
2023/06/18 10:52:42;;;;;;;6.78;4.30;;;;;;;27.56;37.28;97045.41;5052970;28;20832;-70
2023/06/18 10:55:11;;;;;;;4.83;3.77;;;;;;;27.70;37.84;97040.13;5052640;28;20400;-70
2023/06/18 10:57:40;;;;;;;3.72;3.28;;;;;;;27.86;37.60;97031.75;5052734;28;20883;-70
2023/06/18 11:00:15;;;;;;;7.53;4.53;;;;;;;27.83;36.51;97038.72;5052573;28;21000;-70
2023/06/18 11:02:45;;;;;;;5.13;3.80;;;;;;;27.97;37.20;97038.09;5052524;28;20861;-69
2023/06/18 11:05:16;;;;;;;4.97;3.75;;;;;;;28.07;37.34;97037.44;5050959;28;20418;-69
2023/06/18 11:07:42;;;;;;;5.17;4.20;;;;;;;28.17;36.22;97030.56;5052570;28;20433;-69
2023/06/18 11:10:12;;;;;;;5.82;4.30;;;;;;;28.14;36.82;97026.63;5052562;28;20402;-69
2023/06/18 11:12:43;;;;;;;6.10;4.47;;;;;;;28.17;36.08;97025.91;5052476;28;20404;-69
2023/06/18 11:15:17;;;;;;;9.20;4.43;;;;;;;28.24;36.26;97017.03;5052237;28;20402;-69
2023/06/18 11:17:46;;;;;;;5.72;3.80;;;;;;;28.37;37.01;97015.56;5051448;28;20413;-70
2023/06/18 11:20:12;;;;;;;4.40;3.50;;;;;;;28.48;37.65;97008.28;5046541;28;20409;-70
2023/06/18 11:22:41;;;;;;;5.03;3.63;;;;;;;28.66;37.00;97008.41;5048962;28;20402;-70
2023/06/18 11:25:11;;;;;;;6.50;4.05;;;;;;;28.63;35.96;97011.91;5050090;28;20449;-70
2023/06/18 11:27:41;;;;;;;8.30;5.15;;;;;;;28.48;32.76;97011.81;5038905;28;20463;-70
2023/06/18 11:30:10;;;;;;;8.45;5.25;;;;;;;28.32;30.91;97010.50;5032578;28;20772;-69
2023/06/18 11:32:38;;;;;;;7.28;4.20;;;;;;;28.41;32.52;97000.84;5045679;28;20406;-69